sensor_id;sensor_type;location;lat;lon;timestamp;temperature;humidity
17208;DHT22;8720;48.488;9.202;2022-09-12T00:02:01;15.30;58.70
17208;DHT22;8720;48.488;9.202;2022-09-12T00:04:29;15.30;58.70
17208;DHT22;8720;48.488;9.202;2022-09-12T00:06:56;15.20;58.60
17208;DHT22;8720;48.488;9.202;2022-09-12T00:09:24;15.20;58.70
17208;DHT22;8720;48.488;9.202;2022-09-12T00:11:52;15.10;58.90
17208;DHT22;8720;48.488;9.202;2022-09-12T00:14:19;15.10;58.90
17208;DHT22;8720;48.488;9.202;2022-09-12T00:16:46;15.10;59.10
17208;DHT22;8720;48.488;9.202;2022-09-12T00:19:13;15.00;59.00
17208;DHT22;8720;48.488;9.202;2022-09-12T00:21:41;15.00;59.20
17208;DHT22;8720;48.488;9.202;2022-09-12T00:24:09;15.00;59.30
17208;DHT22;8720;48.488;9.202;2022-09-12T00:26:38;15.00;59.40
17208;DHT22;8720;48.488;9.202;2022-09-12T00:29:05;15.00;59.70
17208;DHT22;8720;48.488;9.202;2022-09-12T00:31:33;14.90;59.50
17208;DHT22;8720;48.488;9.202;2022-09-12T00:34:00;14.90;59.70
17208;DHT22;8720;48.488;9.202;2022-09-12T00:36:29;14.90;59.70
17208;DHT22;8720;48.488;9.202;2022-09-12T00:38:56;14.80;59.80
17208;DHT22;8720;48.488;9.202;2022-09-12T00:41:26;14.80;59.80
17208;DHT22;8720;48.488;9.202;2022-09-12T00:43:58;14.80;60.00
17208;DHT22;8720;48.488;9.202;2022-09-12T00:46:31;14.70;60.10
17208;DHT22;8720;48.488;9.202;2022-09-12T00:49:09;14.70;60.40
17208;DHT22;8720;48.488;9.202;2022-09-12T00:51:42;14.70;60.50
17208;DHT22;8720;48.488;9.202;2022-09-12T00:54:17;14.70;60.50
17208;DHT22;8720;48.488;9.202;2022-09-12T00:56:50;14.70;60.60
17208;DHT22;8720;48.488;9.202;2022-09-12T00:59:25;14.60;61.40
17208;DHT22;8720;48.488;9.202;2022-09-12T01:01:55;14.60;60.80
17208;DHT22;8720;48.488;9.202;2022-09-12T01:04:25;14.60;60.60
17208;DHT22;8720;48.488;9.202;2022-09-12T01:06:55;14.50;61.00
17208;DHT22;8720;48.488;9.202;2022-09-12T01:09:24;14.50;60.90
17208;DHT22;8720;48.488;9.202;2022-09-12T01:11:52;14.50;60.80
17208;DHT22;8720;48.488;9.202;2022-09-12T01:14:20;14.50;60.90
17208;DHT22;8720;48.488;9.202;2022-09-12T01:16:50;14.50;61.00
17208;DHT22;8720;48.488;9.202;2022-09-12T01:19:49;14.40;61.30
17208;DHT22;8720;48.488;9.202;2022-09-12T01:23:01;14.40;62.00
17208;DHT22;8720;48.488;9.202;2022-09-12T01:26:06;14.40;61.80
17208;DHT22;8720;48.488;9.202;2022-09-12T01:29:02;14.40;61.80
17208;DHT22;8720;48.488;9.202;2022-09-12T01:32:00;14.40;61.60
17208;DHT22;8720;48.488;9.202;2022-09-12T01:34:40;14.30;61.30
17208;DHT22;8720;48.488;9.202;2022-09-12T01:37:15;14.30;61.50
17208;DHT22;8720;48.488;9.202;2022-09-12T01:39:59;14.30;61.40
17208;DHT22;8720;48.488;9.202;2022-09-12T01:42:35;14.20;61.50
17208;DHT22;8720;48.488;9.202;2022-09-12T01:45:17;14.20;61.30
17208;DHT22;8720;48.488;9.202;2022-09-12T01:47:55;14.20;61.60
17208;DHT22;8720;48.488;9.202;2022-09-12T01:50:31;14.20;61.50
17208;DHT22;8720;48.488;9.202;2022-09-12T01:53:07;14.10;61.40
17208;DHT22;8720;48.488;9.202;2022-09-12T01:55:42;14.10;61.40
17208;DHT22;8720;48.488;9.202;2022-09-12T01:58:17;14.10;61.30
17208;DHT22;8720;48.488;9.202;2022-09-12T02:06:07;14.00;61.30
17208;DHT22;8720;48.488;9.202;2022-09-12T02:08:41;14.00;61.90
17208;DHT22;8720;48.488;9.202;2022-09-12T02:11:13;14.00;62.00
17208;DHT22;8720;48.488;9.202;2022-09-12T02:13:43;13.90;61.80
17208;DHT22;8720;48.488;9.202;2022-09-12T02:16:18;13.90;62.10
17208;DHT22;8720;48.488;9.202;2022-09-12T02:18:51;13.90;62.40
17208;DHT22;8720;48.488;9.202;2022-09-12T02:21:25;13.90;62.30
17208;DHT22;8720;48.488;9.202;2022-09-12T02:23:58;13.90;62.50
17208;DHT22;8720;48.488;9.202;2022-09-12T02:26:33;13.90;62.40
17208;DHT22;8720;48.488;9.202;2022-09-12T02:29:03;13.90;62.70
17208;DHT22;8720;48.488;9.202;2022-09-12T02:31:34;13.80;62.30
17208;DHT22;8720;48.488;9.202;2022-09-12T02:34:12;13.80;62.40
17208;DHT22;8720;48.488;9.202;2022-09-12T02:36:58;13.80;63.30
17208;DHT22;8720;48.488;9.202;2022-09-12T02:39:34;13.80;62.60
17208;DHT22;8720;48.488;9.202;2022-09-12T02:42:02;13.80;62.10
17208;DHT22;8720;48.488;9.202;2022-09-12T02:44:31;13.80;62.10
17208;DHT22;8720;48.488;9.202;2022-09-12T02:47:03;13.70;62.00
17208;DHT22;8720;48.488;9.202;2022-09-12T02:49:35;13.70;62.20
17208;DHT22;8720;48.488;9.202;2022-09-12T02:52:04;13.70;61.90
17208;DHT22;8720;48.488;9.202;2022-09-12T02:54:32;13.70;62.70
17208;DHT22;8720;48.488;9.202;2022-09-12T02:56:59;13.60;61.90
17208;DHT22;8720;48.488;9.202;2022-09-12T02:59:27;13.60;61.90
17208;DHT22;8720;48.488;9.202;2022-09-12T03:02:06;13.60;62.30
17208;DHT22;8720;48.488;9.202;2022-09-12T03:05:07;13.50;63.10
17208;DHT22;8720;48.488;9.202;2022-09-12T03:08:14;13.60;63.70
17208;DHT22;8720;48.488;9.202;2022-09-12T03:11:08;13.50;63.70
17208;DHT22;8720;48.488;9.202;2022-09-12T03:13:51;13.50;63.20
17208;DHT22;8720;48.488;9.202;2022-09-12T03:16:34;13.50;63.20
17208;DHT22;8720;48.488;9.202;2022-09-12T03:19:18;13.50;63.50
17208;DHT22;8720;48.488;9.202;2022-09-12T03:21:58;13.50;63.60
17208;DHT22;8720;48.488;9.202;2022-09-12T03:24:35;13.50;63.80
17208;DHT22;8720;48.488;9.202;2022-09-12T03:27:11;13.50;63.70
17208;DHT22;8720;48.488;9.202;2022-09-12T03:29:44;13.50;63.60
17208;DHT22;8720;48.488;9.202;2022-09-12T03:32:14;13.40;63.40
17208;DHT22;8720;48.488;9.202;2022-09-12T03:34:41;13.50;63.60
17208;DHT22;8720;48.488;9.202;2022-09-12T03:37:08;13.40;63.60
17208;DHT22;8720;48.488;9.202;2022-09-12T03:39:37;13.50;63.80
17208;DHT22;8720;48.488;9.202;2022-09-12T03:42:04;13.40;63.90
17208;DHT22;8720;48.488;9.202;2022-09-12T03:44:31;13.50;64.00
17208;DHT22;8720;48.488;9.202;2022-09-12T03:46:58;13.50;64.00
17208;DHT22;8720;48.488;9.202;2022-09-12T03:49:26;13.40;64.00
17208;DHT22;8720;48.488;9.202;2022-09-12T03:51:53;13.50;64.10
17208;DHT22;8720;48.488;9.202;2022-09-12T03:54:20;13.40;64.20
17208;DHT22;8720;48.488;9.202;2022-09-12T03:56:49;13.40;64.20
17208;DHT22;8720;48.488;9.202;2022-09-12T03:59:16;13.50;64.60
17208;DHT22;8720;48.488;9.202;2022-09-12T04:01:43;13.40;64.40
17208;DHT22;8720;48.488;9.202;2022-09-12T04:04:10;13.50;64.50
17208;DHT22;8720;48.488;9.202;2022-09-12T04:06:37;13.50;64.70
17208;DHT22;8720;48.488;9.202;2022-09-12T04:09:06;13.50;64.80
17208;DHT22;8720;48.488;9.202;2022-09-12T04:11:33;13.50;64.90
17208;DHT22;8720;48.488;9.202;2022-09-12T04:14:02;13.50;65.00
17208;DHT22;8720;48.488;9.202;2022-09-12T04:16:29;13.50;65.30
17208;DHT22;8720;48.488;9.202;2022-09-12T04:18:57;13.50;65.10
17208;DHT22;8720;48.488;9.202;2022-09-12T04:21:25;13.50;65.00
17208;DHT22;8720;48.488;9.202;2022-09-12T04:23:52;13.50;64.90
17208;DHT22;8720;48.488;9.202;2022-09-12T04:26:20;13.50;64.80
17208;DHT22;8720;48.488;9.202;2022-09-12T04:28:51;13.50;64.80
17208;DHT22;8720;48.488;9.202;2022-09-12T04:31:23;13.40;64.80
17208;DHT22;8720;48.488;9.202;2022-09-12T04:33:53;13.40;64.90
17208;DHT22;8720;48.488;9.202;2022-09-12T04:36:21;13.40;65.00
17208;DHT22;8720;48.488;9.202;2022-09-12T04:38:49;13.40;65.00
17208;DHT22;8720;48.488;9.202;2022-09-12T04:41:19;13.40;65.10
17208;DHT22;8720;48.488;9.202;2022-09-12T04:43:52;13.40;65.20
17208;DHT22;8720;48.488;9.202;2022-09-12T04:46:24;13.30;65.10
17208;DHT22;8720;48.488;9.202;2022-09-12T04:48:52;13.30;64.80
17208;DHT22;8720;48.488;9.202;2022-09-12T04:51:21;13.30;64.40
17208;DHT22;8720;48.488;9.202;2022-09-12T04:53:53;13.30;64.40
17208;DHT22;8720;48.488;9.202;2022-09-12T04:56:22;13.20;66.10
17208;DHT22;8720;48.488;9.202;2022-09-12T04:58:51;13.20;65.80
17208;DHT22;8720;48.488;9.202;2022-09-12T05:01:20;13.20;65.60
17208;DHT22;8720;48.488;9.202;2022-09-12T05:03:49;13.20;65.40
17208;DHT22;8720;48.488;9.202;2022-09-12T05:06:18;13.20;65.40
17208;DHT22;8720;48.488;9.202;2022-09-12T05:08:47;13.20;65.20
17208;DHT22;8720;48.488;9.202;2022-09-12T05:11:16;13.30;65.00
17208;DHT22;8720;48.488;9.202;2022-09-12T05:13:45;13.30;65.00
17208;DHT22;8720;48.488;9.202;2022-09-12T05:16:14;13.20;64.60
17208;DHT22;8720;48.488;9.202;2022-09-12T05:18:43;13.20;64.80
17208;DHT22;8720;48.488;9.202;2022-09-12T05:21:14;13.30;65.00
17208;DHT22;8720;48.488;9.202;2022-09-12T05:23:43;13.20;65.10
17208;DHT22;8720;48.488;9.202;2022-09-12T05:26:13;13.30;65.90
17208;DHT22;8720;48.488;9.202;2022-09-12T05:28:43;13.30;65.40
17208;DHT22;8720;48.488;9.202;2022-09-12T05:31:12;13.30;65.10
17208;DHT22;8720;48.488;9.202;2022-09-12T05:33:43;13.30;65.20
17208;DHT22;8720;48.488;9.202;2022-09-12T05:36:14;13.30;65.10
17208;DHT22;8720;48.488;9.202;2022-09-12T05:38:43;13.30;65.70
17208;DHT22;8720;48.488;9.202;2022-09-12T05:41:12;13.40;65.10
17208;DHT22;8720;48.488;9.202;2022-09-12T05:43:42;13.40;65.20
17208;DHT22;8720;48.488;9.202;2022-09-12T05:46:11;13.40;65.00
17208;DHT22;8720;48.488;9.202;2022-09-12T05:48:42;13.40;65.00
17208;DHT22;8720;48.488;9.202;2022-09-12T05:51:12;13.50;65.20
17208;DHT22;8720;48.488;9.202;2022-09-12T05:53:45;13.50;65.20
17208;DHT22;8720;48.488;9.202;2022-09-12T05:56:16;13.50;65.20
17208;DHT22;8720;48.488;9.202;2022-09-12T05:58:47;13.50;65.30
17208;DHT22;8720;48.488;9.202;2022-09-12T06:01:19;13.50;65.30
17208;DHT22;8720;48.488;9.202;2022-09-12T06:03:48;13.60;65.30
17208;DHT22;8720;48.488;9.202;2022-09-12T06:06:19;13.60;65.40
17208;DHT22;8720;48.488;9.202;2022-09-12T06:08:50;13.60;65.70
17208;DHT22;8720;48.488;9.202;2022-09-12T06:11:19;13.60;65.70
17208;DHT22;8720;48.488;9.202;2022-09-12T06:13:48;13.60;65.60
17208;DHT22;8720;48.488;9.202;2022-09-12T06:16:18;13.70;65.90
17208;DHT22;8720;48.488;9.202;2022-09-12T06:18:49;13.70;66.90
17208;DHT22;8720;48.488;9.202;2022-09-12T06:21:21;13.90;67.10
17208;DHT22;8720;48.488;9.202;2022-09-12T06:23:50;14.10;66.60
17208;DHT22;8720;48.488;9.202;2022-09-12T06:26:20;14.30;66.90
17208;DHT22;8720;48.488;9.202;2022-09-12T06:28:49;14.50;67.10
17208;DHT22;8720;48.488;9.202;2022-09-12T06:31:18;14.80;67.20
17208;DHT22;8720;48.488;9.202;2022-09-12T06:33:48;15.00;66.50
17208;DHT22;8720;48.488;9.202;2022-09-12T06:36:18;15.30;65.90
17208;DHT22;8720;48.488;9.202;2022-09-12T06:38:53;15.50;65.30
17208;DHT22;8720;48.488;9.202;2022-09-12T06:41:22;15.70;64.30
17208;DHT22;8720;48.488;9.202;2022-09-12T06:43:50;15.90;63.90
17208;DHT22;8720;48.488;9.202;2022-09-12T06:46:17;16.10;63.80
17208;DHT22;8720;48.488;9.202;2022-09-12T06:48:45;16.10;62.30
17208;DHT22;8720;48.488;9.202;2022-09-12T06:51:15;16.20;62.00
17208;DHT22;8720;48.488;9.202;2022-09-12T06:53:47;16.20;62.90
17208;DHT22;8720;48.488;9.202;2022-09-12T06:56:22;16.30;62.50
17208;DHT22;8720;48.488;9.202;2022-09-12T06:58:51;16.50;62.40
17208;DHT22;8720;48.488;9.202;2022-09-12T07:01:22;16.70;63.50
17208;DHT22;8720;48.488;9.202;2022-09-12T07:03:52;17.00;63.60
17208;DHT22;8720;48.488;9.202;2022-09-12T07:06:23;17.30;63.40
17208;DHT22;8720;48.488;9.202;2022-09-12T07:08:58;17.70;62.60
17208;DHT22;8720;48.488;9.202;2022-09-12T07:11:28;18.20;61.70
17208;DHT22;8720;48.488;9.202;2022-09-12T07:13:58;18.70;60.60
17208;DHT22;8720;48.488;9.202;2022-09-12T07:16:26;19.20;59.40
17208;DHT22;8720;48.488;9.202;2022-09-12T07:18:56;19.60;59.30
17208;DHT22;8720;48.488;9.202;2022-09-12T07:21:25;20.00;56.90
17208;DHT22;8720;48.488;9.202;2022-09-12T07:23:53;20.40;56.30
17208;DHT22;8720;48.488;9.202;2022-09-12T07:26:24;20.70;55.90
17208;DHT22;8720;48.488;9.202;2022-09-12T07:28:54;21.00;54.20
17208;DHT22;8720;48.488;9.202;2022-09-12T07:31:23;21.30;54.20
17208;DHT22;8720;48.488;9.202;2022-09-12T07:33:53;21.50;54.20
17208;DHT22;8720;48.488;9.202;2022-09-12T07:36:22;21.80;54.00
17208;DHT22;8720;48.488;9.202;2022-09-12T07:38:53;22.10;53.20
17208;DHT22;8720;48.488;9.202;2022-09-12T07:41:24;22.30;51.90
17208;DHT22;8720;48.488;9.202;2022-09-12T07:43:53;22.50;52.20
17208;DHT22;8720;48.488;9.202;2022-09-12T07:46:21;22.70;52.30
17208;DHT22;8720;48.488;9.202;2022-09-12T07:48:50;22.90;52.10
17208;DHT22;8720;48.488;9.202;2022-09-12T07:51:18;23.20;51.70
17208;DHT22;8720;48.488;9.202;2022-09-12T07:53:46;23.40;50.80
17208;DHT22;8720;48.488;9.202;2022-09-12T07:56:15;23.50;50.70
17208;DHT22;8720;48.488;9.202;2022-09-12T07:58:45;23.70;49.70
17208;DHT22;8720;48.488;9.202;2022-09-12T08:01:14;23.70;49.40
17208;DHT22;8720;48.488;9.202;2022-09-12T08:03:44;23.80;49.30
17208;DHT22;8720;48.488;9.202;2022-09-12T08:06:14;23.70;48.60
17208;DHT22;8720;48.488;9.202;2022-09-12T08:08:45;23.70;49.00
17208;DHT22;8720;48.488;9.202;2022-09-12T08:11:15;23.60;48.80
17208;DHT22;8720;48.488;9.202;2022-09-12T08:13:45;23.40;48.10
17208;DHT22;8720;48.488;9.202;2022-09-12T08:16:13;23.20;48.40
17208;DHT22;8720;48.488;9.202;2022-09-12T08:18:42;23.00;48.60
17208;DHT22;8720;48.488;9.202;2022-09-12T08:23:46;22.60;49.00
17208;DHT22;8720;48.488;9.202;2022-09-12T08:26:14;22.50;49.40
17208;DHT22;8720;48.488;9.202;2022-09-12T08:28:44;22.30;49.70
17208;DHT22;8720;48.488;9.202;2022-09-12T08:31:13;22.20;49.60
17208;DHT22;8720;48.488;9.202;2022-09-12T08:33:42;22.10;49.80
17208;DHT22;8720;48.488;9.202;2022-09-12T08:36:12;22.00;50.20
17208;DHT22;8720;48.488;9.202;2022-09-12T08:38:42;21.90;50.40
17208;DHT22;8720;48.488;9.202;2022-09-12T08:41:17;21.80;50.30
17208;DHT22;8720;48.488;9.202;2022-09-12T08:44:02;21.80;50.60
17208;DHT22;8720;48.488;9.202;2022-09-12T08:46:49;21.70;50.30
17208;DHT22;8720;48.488;9.202;2022-09-12T08:49:38;21.70;51.30
17208;DHT22;8720;48.488;9.202;2022-09-12T08:52:16;21.70;50.70
17208;DHT22;8720;48.488;9.202;2022-09-12T08:54:47;21.70;50.70
17208;DHT22;8720;48.488;9.202;2022-09-12T08:57:15;21.70;51.00
17208;DHT22;8720;48.488;9.202;2022-09-12T08:59:45;21.80;51.30
17208;DHT22;8720;48.488;9.202;2022-09-12T09:02:45;21.80;51.00
17208;DHT22;8720;48.488;9.202;2022-09-12T09:05:41;21.80;51.00
17208;DHT22;8720;48.488;9.202;2022-09-12T09:08:30;21.80;51.00
17208;DHT22;8720;48.488;9.202;2022-09-12T09:11:17;21.80;50.90
17208;DHT22;8720;48.488;9.202;2022-09-12T09:14:01;21.90;51.30
17208;DHT22;8720;48.488;9.202;2022-09-12T09:16:59;21.90;51.10
17208;DHT22;8720;48.488;9.202;2022-09-12T09:19:30;22.00;51.40
17208;DHT22;8720;48.488;9.202;2022-09-12T09:22:05;22.00;51.40
17208;DHT22;8720;48.488;9.202;2022-09-12T09:24:41;22.00;51.50
17208;DHT22;8720;48.488;9.202;2022-09-12T09:27:18;22.10;51.60
17208;DHT22;8720;48.488;9.202;2022-09-12T09:29:54;22.10;51.80
17208;DHT22;8720;48.488;9.202;2022-09-12T09:32:26;22.20;51.70
17208;DHT22;8720;48.488;9.202;2022-09-12T09:34:56;22.20;51.20
17208;DHT22;8720;48.488;9.202;2022-09-12T09:37:29;22.20;51.30
17208;DHT22;8720;48.488;9.202;2022-09-12T09:40:16;22.30;51.00
17208;DHT22;8720;48.488;9.202;2022-09-12T09:42:55;22.30;50.80
17208;DHT22;8720;48.488;9.202;2022-09-12T09:45:29;22.30;51.30
17208;DHT22;8720;48.488;9.202;2022-09-12T09:48:02;22.40;51.60
17208;DHT22;8720;48.488;9.202;2022-09-12T09:50:46;22.40;51.40
17208;DHT22;8720;48.488;9.202;2022-09-12T09:53:34;22.50;51.40
17208;DHT22;8720;48.488;9.202;2022-09-12T09:56:10;22.60;50.90
17208;DHT22;8720;48.488;9.202;2022-09-12T09:58:41;22.60;51.20
17208;DHT22;8720;48.488;9.202;2022-09-12T10:01:13;22.70;51.20
17208;DHT22;8720;48.488;9.202;2022-09-12T10:03:49;22.70;50.60
17208;DHT22;8720;48.488;9.202;2022-09-12T10:06:24;22.80;50.50
17208;DHT22;8720;48.488;9.202;2022-09-12T10:09:20;22.90;50.00
17208;DHT22;8720;48.488;9.202;2022-09-12T10:11:50;22.90;49.40
17208;DHT22;8720;48.488;9.202;2022-09-12T10:14:34;22.90;49.80
17208;DHT22;8720;48.488;9.202;2022-09-12T10:17:22;23.00;49.50
17208;DHT22;8720;48.488;9.202;2022-09-12T10:19:53;23.10;49.40
17208;DHT22;8720;48.488;9.202;2022-09-12T10:22:22;23.10;49.80
17208;DHT22;8720;48.488;9.202;2022-09-12T10:24:53;23.20;49.90
17208;DHT22;8720;48.488;9.202;2022-09-12T10:27:26;23.20;49.00
17208;DHT22;8720;48.488;9.202;2022-09-12T10:30:00;23.30;48.90
17208;DHT22;8720;48.488;9.202;2022-09-12T10:32:34;23.40;49.50
17208;DHT22;8720;48.488;9.202;2022-09-12T10:35:15;23.40;48.60
17208;DHT22;8720;48.488;9.202;2022-09-12T10:37:51;23.50;48.50
17208;DHT22;8720;48.488;9.202;2022-09-12T10:40:24;23.50;48.20
17208;DHT22;8720;48.488;9.202;2022-09-12T10:42:55;23.60;48.40
17208;DHT22;8720;48.488;9.202;2022-09-12T10:45:27;23.60;48.40
17208;DHT22;8720;48.488;9.202;2022-09-12T10:47:56;23.70;48.10
17208;DHT22;8720;48.488;9.202;2022-09-12T10:50:29;23.80;48.40
17208;DHT22;8720;48.488;9.202;2022-09-12T10:53:17;23.90;48.20
17208;DHT22;8720;48.488;9.202;2022-09-12T10:56:04;23.90;47.70
17208;DHT22;8720;48.488;9.202;2022-09-12T10:58:58;24.00;47.10
17208;DHT22;8720;48.488;9.202;2022-09-12T11:01:42;24.00;46.70
17208;DHT22;8720;48.488;9.202;2022-09-12T11:04:28;24.10;47.10
17208;DHT22;8720;48.488;9.202;2022-09-12T11:07:39;24.10;46.20
17208;DHT22;8720;48.488;9.202;2022-09-12T11:10:24;24.20;46.50
17208;DHT22;8720;48.488;9.202;2022-09-12T11:13:13;24.20;47.00
17208;DHT22;8720;48.488;9.202;2022-09-12T11:15:59;24.30;46.90
17208;DHT22;8720;48.488;9.202;2022-09-12T11:18:55;24.30;46.50
17208;DHT22;8720;48.488;9.202;2022-09-12T11:21:51;24.40;46.50
17208;DHT22;8720;48.488;9.202;2022-09-12T11:25:04;24.40;46.00
17208;DHT22;8720;48.488;9.202;2022-09-12T11:27:53;24.40;45.90
17208;DHT22;8720;48.488;9.202;2022-09-12T11:30:45;24.50;45.90
17208;DHT22;8720;48.488;9.202;2022-09-12T11:33:33;24.50;45.60
17208;DHT22;8720;48.488;9.202;2022-09-12T11:36:15;24.50;44.90
17208;DHT22;8720;48.488;9.202;2022-09-12T11:39:02;24.60;45.00
17208;DHT22;8720;48.488;9.202;2022-09-12T11:41:42;24.60;44.90
17208;DHT22;8720;48.488;9.202;2022-09-12T11:44:17;24.60;45.20
17208;DHT22;8720;48.488;9.202;2022-09-12T11:46:48;24.70;44.70
17208;DHT22;8720;48.488;9.202;2022-09-12T11:49:20;24.80;44.90
17208;DHT22;8720;48.488;9.202;2022-09-12T11:51:55;24.90;44.80
17208;DHT22;8720;48.488;9.202;2022-09-12T11:54:31;25.00;44.60
17208;DHT22;8720;48.488;9.202;2022-09-12T11:57:10;25.00;44.70
17208;DHT22;8720;48.488;9.202;2022-09-12T11:59:46;25.10;44.40
17208;DHT22;8720;48.488;9.202;2022-09-12T12:02:23;25.20;42.90
17208;DHT22;8720;48.488;9.202;2022-09-12T12:05:03;25.30;42.20
17208;DHT22;8720;48.488;9.202;2022-09-12T12:07:45;25.40;41.20
17208;DHT22;8720;48.488;9.202;2022-09-12T12:10:25;25.40;42.60
17208;DHT22;8720;48.488;9.202;2022-09-12T12:13:01;25.50;41.30
17208;DHT22;8720;48.488;9.202;2022-09-12T12:15:33;25.60;40.70
17208;DHT22;8720;48.488;9.202;2022-09-12T12:18:05;25.70;40.80
17208;DHT22;8720;48.488;9.202;2022-09-12T12:20:40;25.70;40.30
17208;DHT22;8720;48.488;9.202;2022-09-12T12:23:24;25.80;40.60
17208;DHT22;8720;48.488;9.202;2022-09-12T12:25:56;25.80;39.10
17208;DHT22;8720;48.488;9.202;2022-09-12T12:29:00;25.90;39.70
17208;DHT22;8720;48.488;9.202;2022-09-12T12:31:27;26.00;38.80
17208;DHT22;8720;48.488;9.202;2022-09-12T12:34:20;26.00;39.70
17208;DHT22;8720;48.488;9.202;2022-09-12T12:36:52;26.10;38.20
17208;DHT22;8720;48.488;9.202;2022-09-12T12:46:00;26.20;36.90
17208;DHT22;8720;48.488;9.202;2022-09-12T12:51:42;26.30;38.10
17208;DHT22;8720;48.488;9.202;2022-09-12T12:54:46;26.30;36.80
17208;DHT22;8720;48.488;9.202;2022-09-12T12:57:34;26.30;37.10
17208;DHT22;8720;48.488;9.202;2022-09-12T13:00:30;26.30;36.40
17208;DHT22;8720;48.488;9.202;2022-09-12T13:03:08;26.20;36.20
17208;DHT22;8720;48.488;9.202;2022-09-12T13:05:47;26.20;36.40
17208;DHT22;8720;48.488;9.202;2022-09-12T13:08:28;26.20;36.80
17208;DHT22;8720;48.488;9.202;2022-09-12T13:11:00;26.20;36.30
17208;DHT22;8720;48.488;9.202;2022-09-12T13:13:35;26.20;36.80
17208;DHT22;8720;48.488;9.202;2022-09-12T13:16:08;26.20;36.90
17208;DHT22;8720;48.488;9.202;2022-09-12T13:18:42;26.20;37.00
17208;DHT22;8720;48.488;9.202;2022-09-12T13:21:13;26.30;36.90
17208;DHT22;8720;48.488;9.202;2022-09-12T13:23:41;26.30;36.70
17208;DHT22;8720;48.488;9.202;2022-09-12T13:26:12;26.30;36.70
17208;DHT22;8720;48.488;9.202;2022-09-12T13:28:47;26.30;36.30
17208;DHT22;8720;48.488;9.202;2022-09-12T13:31:20;26.30;36.40
17208;DHT22;8720;48.488;9.202;2022-09-12T13:33:53;26.40;36.10
17208;DHT22;8720;48.488;9.202;2022-09-12T13:36:35;26.40;36.40
17208;DHT22;8720;48.488;9.202;2022-09-12T13:39:16;26.40;35.50
17208;DHT22;8720;48.488;9.202;2022-09-12T13:42:31;26.40;35.90
17208;DHT22;8720;48.488;9.202;2022-09-12T13:45:10;26.40;35.40
17208;DHT22;8720;48.488;9.202;2022-09-12T13:47:41;26.40;36.10
17208;DHT22;8720;48.488;9.202;2022-09-12T13:50:17;26.40;36.40
17208;DHT22;8720;48.488;9.202;2022-09-12T13:52:52;26.50;36.30
17208;DHT22;8720;48.488;9.202;2022-09-12T13:55:31;26.50;36.20
17208;DHT22;8720;48.488;9.202;2022-09-12T13:58:04;26.50;35.40
17208;DHT22;8720;48.488;9.202;2022-09-12T14:00:33;26.50;35.50
17208;DHT22;8720;48.488;9.202;2022-09-12T14:03:23;26.50;35.70
17208;DHT22;8720;48.488;9.202;2022-09-12T14:06:11;26.50;34.90
17208;DHT22;8720;48.488;9.202;2022-09-12T14:08:44;26.60;35.80
17208;DHT22;8720;48.488;9.202;2022-09-12T14:11:21;26.60;35.30
17208;DHT22;8720;48.488;9.202;2022-09-12T14:13:51;26.60;34.80
17208;DHT22;8720;48.488;9.202;2022-09-12T14:16:21;26.60;35.40
17208;DHT22;8720;48.488;9.202;2022-09-12T14:18:53;26.50;35.50
17208;DHT22;8720;48.488;9.202;2022-09-12T14:21:32;26.60;36.00
17208;DHT22;8720;48.488;9.202;2022-09-12T14:24:03;26.60;34.60
17208;DHT22;8720;48.488;9.202;2022-09-12T14:26:33;26.60;35.10
17208;DHT22;8720;48.488;9.202;2022-09-12T14:29:05;26.60;35.20
17208;DHT22;8720;48.488;9.202;2022-09-12T14:31:35;26.60;35.00
17208;DHT22;8720;48.488;9.202;2022-09-12T14:34:15;26.60;34.70
17208;DHT22;8720;48.488;9.202;2022-09-12T14:36:46;26.60;34.30
17208;DHT22;8720;48.488;9.202;2022-09-12T14:39:20;26.70;34.60
17208;DHT22;8720;48.488;9.202;2022-09-12T14:42:00;26.70;34.50
17208;DHT22;8720;48.488;9.202;2022-09-12T14:44:32;26.70;34.10
17208;DHT22;8720;48.488;9.202;2022-09-12T14:47:12;26.70;34.70
17208;DHT22;8720;48.488;9.202;2022-09-12T14:49:44;26.80;34.20
17208;DHT22;8720;48.488;9.202;2022-09-12T14:52:23;26.80;34.60
17208;DHT22;8720;48.488;9.202;2022-09-12T14:54:58;26.80;34.10
17208;DHT22;8720;48.488;9.202;2022-09-12T14:57:35;26.80;34.20
17208;DHT22;8720;48.488;9.202;2022-09-12T15:00:19;26.80;34.10
17208;DHT22;8720;48.488;9.202;2022-09-12T15:02:49;26.90;34.20
17208;DHT22;8720;48.488;9.202;2022-09-12T15:05:25;26.90;34.50
17208;DHT22;8720;48.488;9.202;2022-09-12T15:07:59;26.90;33.90
17208;DHT22;8720;48.488;9.202;2022-09-12T15:10:29;26.90;34.00
17208;DHT22;8720;48.488;9.202;2022-09-12T15:13:18;26.90;34.20
17208;DHT22;8720;48.488;9.202;2022-09-12T15:15:49;26.90;34.00
17208;DHT22;8720;48.488;9.202;2022-09-12T15:18:18;26.90;34.40
17208;DHT22;8720;48.488;9.202;2022-09-12T15:20:48;26.90;34.40
17208;DHT22;8720;48.488;9.202;2022-09-12T15:23:29;26.90;34.20
17208;DHT22;8720;48.488;9.202;2022-09-12T15:26:00;26.90;33.80
17208;DHT22;8720;48.488;9.202;2022-09-12T15:28:29;26.90;34.20
17208;DHT22;8720;48.488;9.202;2022-09-12T15:31:03;26.90;33.90
17208;DHT22;8720;48.488;9.202;2022-09-12T15:33:33;26.90;33.80
17208;DHT22;8720;48.488;9.202;2022-09-12T15:36:00;26.90;34.10
17208;DHT22;8720;48.488;9.202;2022-09-12T15:38:29;26.90;34.20
17208;DHT22;8720;48.488;9.202;2022-09-12T15:40:56;26.90;34.10
17208;DHT22;8720;48.488;9.202;2022-09-12T15:43:24;26.90;34.00
17208;DHT22;8720;48.488;9.202;2022-09-12T15:45:52;26.80;34.20
17208;DHT22;8720;48.488;9.202;2022-09-12T15:48:19;26.80;34.20
17208;DHT22;8720;48.488;9.202;2022-09-12T15:50:47;26.80;34.00
17208;DHT22;8720;48.488;9.202;2022-09-12T15:53:15;26.80;34.30
17208;DHT22;8720;48.488;9.202;2022-09-12T15:55:44;26.80;34.40
17208;DHT22;8720;48.488;9.202;2022-09-12T15:58:11;26.70;34.40
17208;DHT22;8720;48.488;9.202;2022-09-12T16:00:39;26.70;34.60
17208;DHT22;8720;48.488;9.202;2022-09-12T16:03:08;26.70;34.50
17208;DHT22;8720;48.488;9.202;2022-09-12T16:05:48;26.70;34.90
17208;DHT22;8720;48.488;9.202;2022-09-12T16:08:15;26.70;34.80
17208;DHT22;8720;48.488;9.202;2022-09-12T16:10:45;26.70;34.70
17208;DHT22;8720;48.488;9.202;2022-09-12T16:13:15;26.60;34.20
17208;DHT22;8720;48.488;9.202;2022-09-12T16:15:42;26.60;34.30
17208;DHT22;8720;48.488;9.202;2022-09-12T16:18:09;26.60;34.40
17208;DHT22;8720;48.488;9.202;2022-09-12T16:20:38;26.60;34.50
17208;DHT22;8720;48.488;9.202;2022-09-12T16:23:05;26.50;34.30
17208;DHT22;8720;48.488;9.202;2022-09-12T16:25:33;26.50;34.20
17208;DHT22;8720;48.488;9.202;2022-09-12T16:28:03;26.50;34.30
17208;DHT22;8720;48.488;9.202;2022-09-12T16:30:31;26.40;34.20
17208;DHT22;8720;48.488;9.202;2022-09-12T16:32:58;26.40;34.60
17208;DHT22;8720;48.488;9.202;2022-09-12T16:35:25;26.40;34.50
17208;DHT22;8720;48.488;9.202;2022-09-12T16:37:53;26.30;34.50
17208;DHT22;8720;48.488;9.202;2022-09-12T16:40:20;26.30;34.60
17208;DHT22;8720;48.488;9.202;2022-09-12T16:42:48;26.20;34.80
17208;DHT22;8720;48.488;9.202;2022-09-12T16:45:17;26.20;35.10
17208;DHT22;8720;48.488;9.202;2022-09-12T16:47:44;26.10;34.90